Language: 


Des rapports , des résumés tant et plus, au choix de chacun....


Données statistiques de la station
Quotidien Rapport Novembre 20, 2017 Unités:  Anglais    Métrique   les deux
« Précédent Jour
Suivant Jour »
Quotidien Hebdomadaire Mensuel Annuel Actuel
  Haut: Bas: Moyen:
Température: TemperatureC °F 0.0 °F 7.5 °F
Pt de rosée: DewpointC °F 1.0 °F 7.6 °F
Humidité: Humidity % 0 % 97 %
Vitesse du vent: WindSpeedKMH mph 0.0 mph 8.1 mph
Rafales: WindSpeedGustKMH mph - -
Vent:- - WSW
Pression: PressurehPa in 0.0 in -
Précipitation: 7.9 in    
Historical Graphs
 
 
Données statistiques pour Novembre 20, 2017
Heure Température Point de rosée Pression Vent Vitesse du vent Refales Humidité Pluie (taux horaire)
TemperatureC °F DewpointC °F PressurehPa in Calm     Humidity % HourlyPrecipMM in
00:02 2.1 °F 2.0 °F 1023.9 in West 1.4 mph 1.4 mph 98 % 0.0 in
00:07 2.2 °F 2.0 °F 1023.9 in West 1.4 mph 1.4 mph 98 % 0.0 in
00:27 2.0 °F 2.0 °F 1022.9 in West 1.4 mph 1.4 mph 98 % 0.0 in
00:32 1.9 °F 2.0 °F 1022.9 in West 1.4 mph 1.4 mph 98 % 0.0 in
00:37 1.7 °F 2.0 °F 1022.9 in West 1.4 mph 1.4 mph 98 % 0.0 in
00:42 1.6 °F 2.0 °F 1022.9 in West 1.4 mph 1.4 mph 98 % 0.0 in
00:47 1.5 °F 2.0 °F 1022.9 in West 1.4 mph 1.4 mph 98 % 0.0 in
00:52 1.4 °F 1.0 °F 1022.9 in West 1.4 mph 1.4 mph 98 % 0.0 in
00:57 1.3 °F 1.0 °F 1022.9 in West 1.4 mph 1.4 mph 98 % 0.0 in
01:02 1.1 °F 1.0 °F 1022.9 in West 1.4 mph 1.4 mph 98 % 0.0 in
01:07 1.1 °F 1.0 °F 1022.9 in West 1.4 mph 1.4 mph 98 % 0.0 in
01:22 1.1 °F 1.0 °F 1021.9 in West 1.4 mph 1.4 mph 98 % 0.0 in
01:27 1.0 °F 1.0 °F 1021.9 in West 1.4 mph 1.4 mph 98 % 0.0 in
01:47 0.9 °F 1.0 °F 1021.9 in West 1.4 mph 1.4 mph 98 % 0.0 in
01:53 0.9 °F 1.0 °F 1021.9 in West 1.4 mph 1.4 mph 98 % 0.0 in
01:58 0.9 °F 1.0 °F 1020.9 in West 1.4 mph 1.4 mph 98 % 0.0 in
02:03 1.0 °F 1.0 °F 1020.9 in West 1.4 mph 1.4 mph 98 % 0.0 in
02:13 1.0 °F 1.0 °F 1019.9 in West 1.4 mph 1.4 mph 98 % 0.0 in
02:18 1.0 °F 1.0 °F 1019.9 in West 1.4 mph 1.4 mph 98 % 0.0 in
02:23 1.0 °F 1.0 °F 1019.9 in West 1.4 mph 1.4 mph 98 % 0.0 in
02:31 1.1 °F 1.0 °F 1020.9 in West 1.4 mph 1.4 mph 98 % 0.0 in
02:36 1.0 °F 1.0 °F 1020.9 in West 1.4 mph 1.4 mph 98 % 0.0 in
02:41 1.0 °F 1.0 °F 1019.9 in West 1.4 mph 1.4 mph 98 % 0.0 in
02:51 1.0 °F 1.0 °F 1019.9 in West 1.4 mph 1.4 mph 98 % 0.0 in
02:56 1.0 °F 1.0 °F 1020.9 in West 1.4 mph 1.4 mph 98 % 0.0 in
03:02 0.0 °F 1.0 °F 0.0 in Calm     0 % 0.0 in
03:07 1.1 °F 1.0 °F 1020.9 in Calm     98 % 0.0 in
03:12 1.1 °F 1.0 °F 1020.9 in Calm     98 % 0.0 in
03:59 1.7 °F 2.0 °F 1020.9 in Calm     98 % 0.0 in
04:14 1.7 °F 2.0 °F 1019.9 in Calm     98 % 0.0 in
04:24 1.7 °F 2.0 °F 1019.9 in Calm     98 % 0.0 in
04:29 1.7 °F 2.0 °F 1019.9 in Calm     98 % 0.0 in
04:39 1.7 °F 2.0 °F 1019.9 in Calm     98 % 0.0 in
04:41 1.7 °F 2.0 °F 1019.9 in Calm     98 % 0.0 in
04:46 1.7 °F 2.0 °F 1019.9 in Calm     98 % 0.0 in
04:51 1.7 °F 2.0 °F 1019.9 in Calm     98 % 0.0 in
05:01 1.7 °F 2.0 °F 1018.8 in Calm     98 % 0.0 in
05:06 1.7 °F 2.0 °F 1018.8 in Calm     98 % 0.0 in
05:11 1.8 °F 2.0 °F 1018.8 in Calm     98 % 0.0 in
05:16 1.9 °F 2.0 °F 1018.8 in Calm     98 % 0.0 in
05:21 2.0 °F 2.0 °F 1018.8 in Calm     98 % 0.0 in
05:26 2.0 °F 2.0 °F 1018.8 in Calm     98 % 0.0 in
05:31 2.1 °F 2.0 °F 1018.8 in Calm     98 % 0.0 in
05:41 2.3 °F 3.0 °F 1018.8 in Calm     98 % 0.0 in
05:46 2.4 °F 3.0 °F 1018.8 in Calm     98 % 0.0 in
05:51 2.5 °F 3.0 °F 1018.8 in Calm     98 % 0.0 in
05:56 2.6 °F 3.0 °F 1018.2 in Calm     98 % 0.0 in
06:01 2.6 °F 3.0 °F 1018.2 in Calm     98 % 0.0 in
06:07 2.7 °F 3.0 °F 1018.2 in Calm     98 % 0.0 in
06:17 2.8 °F 3.0 °F 1018.8 in Calm     98 % 0.0 in
06:27 3.0 °F 3.0 °F 1018.8 in Calm     98 % 0.0 in
06:32 3.1 °F 3.0 °F 1018.8 in Calm     98 % 0.0 in
06:37 3.2 °F 3.0 °F 1018.8 in Calm     98 % 0.0 in
06:42 3.4 °F 3.0 °F 1018.8 in Calm     98 % 0.0 in
06:47 3.5 °F 4.0 °F 1018.8 in Calm     98 % 0.0 in
06:57 3.7 °F 4.0 °F 1018.8 in Calm     98 % 0.0 in
07:02 3.8 °F 4.0 °F 1018.8 in SSE 5.0 mph 6.4 mph 98 % 0.0 in
07:07 3.8 °F 4.0 °F 1018.8 in South 4.7 mph 6.4 mph 98 % 0.0 in
07:23 4.1 °F 4.0 °F 1018.8 in SW 5.5 mph 7.9 mph 98 % 0.0 in
07:28 4.1 °F 4.0 °F 1018.8 in SW 5.8 mph 7.9 mph 98 % 0.0 in
07:33 4.1 °F 4.0 °F 1018.8 in SW 6.1 mph 10.1 mph 98 % 0.0 in
07:38 4.3 °F 4.0 °F 1018.8 in Calm   10.1 mph 98 % 0.0 in
07:43 4.4 °F 4.0 °F 1018.8 in SSW 6.9 mph 9.3 mph 98 % 0.0 in
07:48 4.4 °F 4.0 °F 1018.8 in South 7.9 mph 9.3 mph 98 % 0.0 in
07:58 4.4 °F 4.0 °F 1018.8 in Calm   9.7 mph 98 % 0.0 in
08:03 4.4 °F 4.0 °F 1018.8 in SW 6.4 mph 9.7 mph 98 % 0.0 in
08:08 4.4 °F 4.0 °F 1018.8 in Calm   8.7 mph 98 % 0.0 in
08:13 4.4 °F 4.0 °F 1018.8 in SW 3.5 mph 9.7 mph 98 % 0.0 in
08:18 4.4 °F 4.0 °F 1018.8 in SSW 5.8 mph 9.7 mph 98 % 0.0 in
08:28 4.4 °F 4.0 °F 1018.8 in SSW 4.3 mph 10.5 mph 98 % 0.0 in
08:33 4.4 °F 4.0 °F 1018.8 in South 5.0 mph 10.1 mph 98 % 0.0 in
08:38 4.9 °F 5.0 °F 1018.8 in South 9.7 mph 13.0 mph 98 % 0.0 in
08:43 4.9 °F 5.0 °F 1018.8 in South 5.0 mph 13.0 mph 98 % 0.0 in
08:48 4.9 °F 5.0 °F 1018.8 in SSW 6.1 mph 10.1 mph 98 % 0.0 in
08:53 4.9 °F 5.0 °F 1018.8 in SSW 2.1 mph 10.1 mph 98 % 0.0 in
09:03 4.9 °F 5.0 °F 1018.2 in SSW 9.0 mph 14.0 mph 98 % 0.0 in
09:08 5.3 °F 6.0 °F 1018.2 in SW 4.7 mph 14.0 mph 98 % 0.0 in
09:13 5.3 °F 6.0 °F 1018.2 in SW 7.2 mph 11.9 mph 98 % 0.0 in
09:19 5.3 °F 6.0 °F 1018.2 in South 2.6 mph 11.9 mph 98 % 0.0 in
09:29 5.6 °F 6.0 °F 1018.2 in South 7.6 mph 9.3 mph 98 % 0.0 in
09:34 5.7 °F 6.0 °F 1018.2 in SSW 9.0 mph 13.0 mph 98 % 0.3 in
09:39 5.8 °F 6.0 °F 1018.2 in SSW 2.1 mph 13.0 mph 98 % 0.3 in
09:44 5.8 °F 6.0 °F 1018.2 in Calm   9.0 mph 98 % 0.3 in
10:04 6.2 °F 6.0 °F 1018.2 in Calm   6.1 mph 98 % 0.3 in
10:09 6.2 °F 6.0 °F 1018.2 in Calm   5.0 mph 98 % 0.5 in
10:14 6.3 °F 6.0 °F 1016.8 in SW 5.5 mph 5.5 mph 98 % 0.5 in
10:19 6.3 °F 6.0 °F 1016.8 in Calm   5.5 mph 98 % 0.5 in
10:24 6.4 °F 6.0 °F 1016.8 in Calm   4.3 mph 98 % 0.5 in
10:29 6.5 °F 7.0 °F 1016.8 in SSW 2.6 mph 5.8 mph 98 % 0.5 in
10:39 6.7 °F 7.0 °F 1016.8 in WSW 5.0 mph 9.7 mph 98 % 0.5 in
10:44 6.8 °F 7.0 °F 1016.8 in WSW 6.1 mph 9.7 mph 98 % 0.5 in
10:50 6.9 °F 7.0 °F 1016.8 in WSW 7.9 mph 10.1 mph 98 % 0.5 in
10:55 7.0 °F 7.0 °F 1016.8 in WSW 10.1 mph 13.0 mph 98 % 0.5 in
11:00 7.1 °F 7.0 °F 1016.8 in Calm   13.0 mph 98 % 0.5 in
11:05 7.1 °F 7.0 °F 1016.8 in WSW 9.7 mph 11.6 mph 98 % 0.3 in
11:15 7.3 °F 7.0 °F 1016.8 in WSW 7.9 mph 9.7 mph 98 % 0.3 in
11:20 7.4 °F 7.0 °F 1016.8 in SW 7.9 mph 10.1 mph 98 % 0.3 in
11:25 7.4 °F 7.0 °F 1016.8 in SW 8.7 mph 10.5 mph 98 % 0.3 in
11:30 7.5 °F 8.0 °F 1016.8 in SW 10.5 mph 10.5 mph 98 % 0.3 in
11:35 7.7 °F 8.0 °F 1016.8 in WSW 9.3 mph 11.9 mph 98 % 0.3 in
11:40 7.8 °F 8.0 °F 1016.8 in SW 6.9 mph 12.6 mph 98 % 0.3 in
11:46 7.9 °F 8.0 °F 1016.8 in SW 10.1 mph 12.6 mph 98 % 0.3 in
11:51 7.9 °F 8.0 °F 1016.8 in SW 9.3 mph 11.9 mph 98 % 0.3 in
11:56 8.0 °F 8.0 °F 1016.8 in WSW 10.1 mph 13.0 mph 98 % 0.3 in
12:01 8.1 °F 8.0 °F 1016.8 in SSW 9.3 mph 14.0 mph 98 % 0.3 in
12:06 8.2 °F 8.0 °F 1016.8 in WSW 10.1 mph 14.0 mph 98 % 0.3 in
12:11 8.3 °F 9.0 °F 1016.8 in SW 10.1 mph 19.1 mph 98 % 0.5 in
12:16 8.5 °F 9.0 °F 1016.8 in WSW 5.5 mph 19.1 mph 98 % 0.5 in
12:21 8.6 °F 9.0 °F 1016.8 in SW 10.1 mph 16.6 mph 98 % 0.5 in
12:26 8.7 °F 9.0 °F 1016.1 in SW 6.1 mph 16.6 mph 98 % 0.5 in
12:36 8.8 °F 9.0 °F 1016.1 in SW 6.1 mph 14.0 mph 98 % 0.8 in
12:41 9.0 °F 9.0 °F 1016.1 in WSW 12.2 mph 17.7 mph 98 % 1.0 in
12:46 9.1 °F 9.0 °F 1016.1 in SSW 13.0 mph 17.7 mph 98 % 1.0 in
12:51 9.1 °F 9.0 °F 1016.1 in SW 11.6 mph 19.5 mph 98 % 1.0 in
13:01 9.2 °F 9.0 °F 1015.1 in South 11.9 mph 15.4 mph 98 % 1.3 in
13:06 9.2 °F 9.0 °F 1015.1 in SW 10.1 mph 15.4 mph 98 % 1.3 in
13:11 9.3 °F 9.0 °F 1015.1 in SW 10.5 mph 14.0 mph 98 % 1.0 in
13:16 9.3 °F 9.0 °F 1015.1 in SSW 9.0 mph 16.3 mph 98 % 1.3 in
13:21 9.4 °F 9.0 °F 1015.1 in SW 9.3 mph 16.9 mph 98 % 1.3 in
13:37 9.6 °F 10.0 °F 1015.1 in SSW 5.8 mph 14.0 mph 98 % 0.8 in
13:47 9.7 °F 10.0 °F 1015.1 in SW 14.8 mph 15.4 mph 98 % 0.8 in
13:52 9.8 °F 10.0 °F 1015.1 in SW 11.9 mph 16.3 mph 98 % 0.8 in
13:57 9.9 °F 10.0 °F 1015.1 in SW 15.8 mph 16.3 mph 98 % 0.5 in
14:14 10.1 °F 10.0 °F 1015.1 in SW 11.6 mph 16.9 mph 98 % 0.3 in
14:19 10.1 °F 10.0 °F 1015.1 in SSW 12.2 mph 16.3 mph 98 % 0.3 in
14:24 10.1 °F 10.0 °F 1015.1 in WSW 9.3 mph 14.0 mph 98 % 0.3 in
14:39 10.1 °F 10.0 °F 1014.1 in SW 9.7 mph 15.1 mph 98 % 0.0 in
14:44 10.2 °F 10.0 °F 1014.1 in WSW 10.5 mph 15.1 mph 98 % 0.0 in
14:54 10.2 °F 10.0 °F 1014.1 in SW 13.0 mph 13.7 mph 98 % 0.0 in
14:59 10.2 °F 10.0 °F 1014.1 in WSW 12.2 mph 13.7 mph 98 % 0.0 in
15:04 10.3 °F 10.0 °F 1014.1 in SW 6.9 mph 13.0 mph 98 % 0.3 in
15:06 10.3 °F 10.0 °F 1014.1 in SW 7.9 mph 13.0 mph 98 % 0.3 in
15:11 10.4 °F 10.0 °F 1014.1 in WSW 9.7 mph 13.7 mph 98 % 0.3 in
15:16 10.4 °F 10.0 °F 1014.1 in SW 8.7 mph 13.7 mph 98 % 0.3 in
15:21 10.4 °F 10.0 °F 1014.1 in WSW 13.0 mph 13.0 mph 98 % 0.3 in
15:26 10.6 °F 11.0 °F 1014.1 in WSW 10.1 mph 16.6 mph 98 % 0.3 in
15:31 10.6 °F 11.0 °F 1014.1 in WSW 15.4 mph 16.9 mph 98 % 0.3 in
15:36 10.9 °F 11.0 °F 1014.1 in WSW 16.9 mph 20.6 mph 98 % 0.3 in
15:47 11.1 °F 11.0 °F 1014.1 in WSW 16.3 mph 23.0 mph 98 % 0.3 in
15:52 11.1 °F 11.0 °F 1014.1 in WSW 12.6 mph 23.8 mph 98 % 0.3 in
15:53 11.1 °F 11.0 °F 1014.1 in WSW 14.0 mph 23.8 mph 98 % 0.3 in
15:58 11.1 °F 11.0 °F 1014.1 in WSW 17.2 mph 22.4 mph 98 % 0.3 in
16:13 11.1 °F 11.0 °F 1013.1 in WSW 14.0 mph 20.9 mph 98 % 0.0 in
16:28 10.9 °F 11.0 °F 1013.1 in SW 9.0 mph 12.2 mph 98 % 0.0 in
16:38 10.8 °F 11.0 °F 1013.1 in SW 10.5 mph 14.0 mph 98 % 0.0 in
16:43 10.8 °F 11.0 °F 1013.1 in WSW 9.3 mph 16.3 mph 98 % 0.3 in
16:48 10.8 °F 11.0 °F 1013.1 in WSW 12.2 mph 16.3 mph 98 % 0.3 in
16:53 10.7 °F 11.0 °F 1013.1 in WSW 9.0 mph 14.0 mph 98 % 0.3 in
16:58 10.7 °F 11.0 °F 1013.1 in SSW 10.5 mph 13.7 mph 98 % 0.8 in
17:03 10.7 °F 11.0 °F 1013.1 in WSW 10.1 mph 16.9 mph 98 % 0.8 in
17:08 10.7 °F 11.0 °F 1013.1 in SW 10.1 mph 19.8 mph 98 % 1.0 in
17:13 10.7 °F 11.0 °F 1012.1 in WSW 19.5 mph 19.8 mph 98 % 1.0 in
17:18 10.7 °F 11.0 °F 1012.1 in SSW 20.1 mph 20.1 mph 98 % 1.3 in
17:24 10.7 °F 11.0 °F 1012.1 in WSW 17.7 mph 20.1 mph 98 % 1.5 in
17:34 10.8 °F 11.0 °F 1013.1 in WSW 17.7 mph 19.8 mph 98 % 1.5 in
17:39 10.8 °F 11.0 °F 1013.1 in SW 12.2 mph 19.8 mph 98 % 1.3 in
17:44 10.8 °F 11.0 °F 1013.1 in WSW 9.7 mph 17.2 mph 98 % 1.3 in
17:49 10.9 °F 11.0 °F 1013.1 in WSW 14.0 mph 17.7 mph 98 % 1.3 in
17:59 10.9 °F 11.0 °F 1013.1 in SW 12.2 mph 18.0 mph 98 % 0.8 in
18:04 10.9 °F 11.0 °F 1013.1 in SSW 12.2 mph 18.0 mph 98 % 0.8 in
18:09 10.9 °F 11.0 °F 1013.1 in WSW 11.9 mph 17.7 mph 98 % 0.5 in
18:14 10.9 °F 11.0 °F 1013.1 in WSW 12.2 mph 17.7 mph 98 % 0.3 in
18:19 11.0 °F 11.0 °F 1013.1 in SSW 13.7 mph 17.7 mph 98 % 0.3 in
18:29 11.1 °F 11.0 °F 1013.1 in West 12.2 mph 19.1 mph 98 % 0.0 in
18:34 11.3 °F 11.0 °F 1013.1 in WSW 12.2 mph 19.8 mph 98 % 0.0 in
18:39 11.4 °F 11.0 °F 1013.1 in WSW 18.3 mph 20.9 mph 98 % 0.0 in
18:44 11.5 °F 12.0 °F 1013.1 in West 16.3 mph 20.9 mph 98 % 0.3 in
18:49 11.6 °F 12.0 °F 1013.1 in West 12.6 mph 21.2 mph 98 % 0.3 in
18:59 11.7 °F 12.0 °F 1012.1 in WSW 9.3 mph 16.3 mph 98 % 0.3 in
19:04 11.7 °F 12.0 °F 1012.1 in West 20.1 mph 23.8 mph 98 % 0.3 in
19:13 11.8 °F 12.0 °F 1012.1 in WSW 16.9 mph 24.5 mph 98 % 0.5 in
19:18 11.8 °F 12.0 °F 1012.1 in WSW 20.1 mph 28.5 mph 98 % 0.8 in
19:23 11.9 °F 12.0 °F 1012.1 in WNW 17.7 mph 31.4 mph 98 % 0.8 in
19:28 11.9 °F 12.0 °F 1013.1 in WSW 24.5 mph 31.4 mph 98 % 1.3 in
19:33 11.9 °F 12.0 °F 1013.1 in WSW 20.1 mph 30.6 mph 98 % 1.5 in
19:34 11.9 °F 12.0 °F 1013.1 in West 16.3 mph 30.6 mph 98 % 1.5 in
19:39 11.9 °F 12.0 °F 1013.1 in West 20.6 mph 23.8 mph 98 % 1.5 in
19:49 12.0 °F 12.0 °F 1013.1 in WSW 17.2 mph 25.9 mph 98 % 1.5 in
19:54 12.0 °F 12.0 °F 1013.1 in WSW 18.0 mph 23.8 mph 98 % 1.8 in
19:59 12.0 °F 12.0 °F 1012.1 in West 20.6 mph 23.8 mph 98 % 1.8 in
20:04 11.9 °F 12.0 °F 1012.1 in WSW 12.2 mph 20.6 mph 98 % 1.8 in
20:08 11.9 °F 12.0 °F 1012.1 in West 15.1 mph 20.6 mph 98 % 1.5 in
20:13 11.9 °F 12.0 °F 1013.1 in WSW 13.0 mph 20.9 mph 98 % 1.5 in
20:18 11.9 °F 12.0 °F 1013.1 in West 12.6 mph 20.9 mph 98 % 1.3 in
20:28 11.9 °F 12.0 °F 1013.1 in WSW 14.0 mph 20.1 mph 98 % 0.8 in
20:48 12.1 °F 12.0 °F 1013.1 in West 12.2 mph 20.6 mph 98 % 0.3 in
20:53 12.1 °F 12.0 °F 1013.1 in West 15.8 mph 20.6 mph 98 % 0.0 in
20:58 12.1 °F 12.0 °F 1013.1 in West 15.8 mph 24.5 mph 98 % 0.0 in
21:03 12.2 °F 12.0 °F 1013.1 in West 12.2 mph 24.5 mph 98 % 0.0 in
21:08 12.2 °F 12.0 °F 1013.1 in WSW 12.2 mph 20.6 mph 98 % 0.0 in
21:13 12.2 °F 12.0 °F 1013.1 in WSW 16.6 mph 16.6 mph 98 % 0.0 in
21:18 12.2 °F 12.0 °F 1013.1 in WSW 13.7 mph 21.6 mph 98 % 0.0 in
21:28 12.3 °F 13.0 °F 1013.1 in West 10.5 mph 16.9 mph 98 % 0.0 in
21:33 12.3 °F 13.0 °F 1013.1 in WSW 14.3 mph 20.1 mph 98 % 0.0 in
21:38 12.4 °F 13.0 °F 1013.1 in West 11.9 mph 20.1 mph 98 % 0.0 in
21:48 12.5 °F 13.0 °F 1013.1 in WSW 21.2 mph 21.2 mph 98 % 0.0 in
21:53 12.5 °F 13.0 °F 1013.1 in WNW 20.6 mph 23.0 mph 98 % 0.3 in
21:59 12.5 °F 13.0 °F 1012.1 in SSW 16.3 mph 23.0 mph 98 % 0.3 in
22:14 12.5 °F 13.0 °F 1012.1 in WSW 16.6 mph 25.9 mph 98 % 0.3 in
22:19 12.5 °F 13.0 °F 1012.1 in WSW 9.3 mph 19.8 mph 98 % 0.3 in
22:24 12.5 °F 13.0 °F 1012.1 in WSW 16.6 mph 23.0 mph 98 % 0.3 in
22:29 12.5 °F 13.0 °F 1013.1 in West 17.7 mph 24.5 mph 98 % 0.3 in
22:34 12.5 °F 13.0 °F 1013.1 in West 12.2 mph 24.5 mph 98 % 0.3 in
22:39 12.5 °F 13.0 °F 1013.1 in West 12.2 mph 20.6 mph 98 % 0.3 in
22:44 12.5 °F 13.0 °F 1013.1 in WSW 15.8 mph 20.6 mph 98 % 0.3 in
22:50 12.5 °F 13.0 °F 1013.1 in West 11.6 mph 19.8 mph 98 % 0.0 in
22:55 12.5 °F 13.0 °F 1013.1 in West 19.8 mph 21.2 mph 98 % 0.0 in
23:00 12.5 °F 13.0 °F 1013.1 in WSW 9.3 mph 28.5 mph 98 % 0.0 in
23:05 12.5 °F 13.0 °F 1013.1 in West 10.5 mph 28.5 mph 98 % 0.0 in
23:10 12.5 °F 13.0 °F 1013.1 in WSW 16.9 mph 24.8 mph 98 % 0.0 in
23:14 12.5 °F 13.0 °F 1013.1 in West 8.7 mph 21.9 mph 98 % 0.3 in
23:20 12.5 °F 13.0 °F 1013.1 in WSW 12.6 mph 21.9 mph 98 % 0.3 in
23:24 12.5 °F 13.0 °F 1013.1 in West 12.6 mph 16.9 mph 98 % 0.3 in
23:35 12.4 °F 13.0 °F 1012.1 in WSW 9.0 mph 13.0 mph 98 % 0.3 in
23:40 12.4 °F 13.0 °F 1012.1 in WSW 9.7 mph 11.9 mph 98 % 0.5 in
23:50 12.4 °F 13.0 °F 1013.1 in West 6.9 mph 15.8 mph 98 % 0.5 in
23:54 12.4 °F 13.0 °F 1013.1 in WSW 9.0 mph 15.8 mph 98 % 0.5 in
Le Gheer Warneton
Courtoisie de Weather Underground - 2 mb

Mise a jour : 21/02/2018 02:07:11
Généré par Cumulus 1.9.4 (1099)